createdAt,value
2023-01-22T07:40:31.782Z,4.70
2023-01-22T07:43:33.489Z,4.38
2023-01-22T07:46:35.639Z,3.45
2023-01-22T07:49:37.497Z,5.57
2023-01-22T07:52:39.186Z,5.93
2023-01-22T07:55:41.093Z,4.20
2023-01-22T07:58:42.759Z,3.70
2023-01-22T08:01:44.486Z,4.60
2023-01-22T08:04:46.220Z,3.20
2023-01-22T08:07:48.047Z,4.43
2023-01-22T08:10:49.772Z,3.95
2023-01-22T08:13:51.503Z,3.50
2023-01-22T08:16:53.229Z,4.13
2023-01-22T08:19:56.147Z,4.45
2023-01-22T08:22:59.137Z,4.30
2023-01-22T08:26:01.495Z,2.15
2023-01-22T08:29:06.051Z,4.03
2023-01-22T08:32:09.291Z,8.98
2023-01-22T08:35:13.001Z,3.50
2023-01-22T08:38:14.995Z,4.35
2023-01-22T08:41:16.740Z,4.78
2023-01-22T08:44:18.398Z,4.60
2023-01-22T08:47:20.099Z,2.75
2023-01-22T08:50:21.735Z,4.32
2023-01-22T08:53:23.455Z,3.88
2023-01-22T08:56:25.159Z,3.13
2023-01-22T08:59:28.830Z,4.13
2023-01-22T09:02:31.721Z,4.25
2023-01-22T09:05:33.459Z,4.82
2023-01-22T09:08:55.312Z,5.18
2023-01-22T09:11:57.001Z,3.53
2023-01-22T09:14:58.640Z,3.72
2023-01-22T09:18:00.433Z,5.78
2023-01-22T09:21:02.216Z,3.30
2023-01-22T09:24:04.928Z,3.65
2023-01-22T09:27:08.571Z,4.32
2023-01-22T09:30:10.924Z,4.60
2023-01-22T09:33:12.635Z,7.47
2023-01-22T09:36:15.240Z,4.72
2023-01-22T09:39:17.318Z,4.72
2023-01-22T09:42:26.016Z,3.67
2023-01-22T09:45:27.702Z,3.72
2023-01-22T09:48:35.033Z,4.22
2023-01-22T09:51:36.777Z,3.92
2023-01-22T09:54:38.422Z,3.90
2023-01-22T09:57:44.600Z,6.93
2023-01-22T10:00:51.277Z,8.00
2023-01-22T10:03:55.064Z,8.07
2023-01-22T10:06:57.125Z,7.13
2023-01-22T10:10:01.482Z,9.20
2023-01-22T10:13:28.217Z,9.18
2023-01-22T10:16:29.975Z,9.45
2023-01-22T10:19:53.274Z,8.02
2023-01-22T10:22:56.334Z,7.25
2023-01-22T10:26:30.057Z,6.88
2023-01-22T10:29:33.164Z,8.73
2023-01-22T10:32:34.866Z,8.00
2023-01-22T10:35:43.985Z,13.40
2023-01-22T10:38:45.636Z,13.63
2023-01-22T10:41:47.901Z,13.18
2023-01-22T10:44:49.691Z,15.02
2023-01-22T10:47:51.551Z,16.13
2023-01-22T10:51:16.182Z,15.38
2023-01-22T10:54:44.967Z,16.38
2023-01-22T10:57:51.684Z,13.85
2023-01-22T11:01:04.317Z,18.55
2023-01-22T11:04:25.149Z,19.98
2023-01-22T11:07:32.624Z,17.65
2023-01-22T11:10:50.411Z,18.65
2023-01-22T11:14:02.866Z,16.25
2023-01-22T11:17:19.485Z,20.05
2023-01-22T11:20:42.024Z,19.45
2023-01-22T11:23:49.781Z,14.63
2023-01-22T11:27:23.939Z,13.65
2023-01-22T11:33:48.085Z,15.52
2023-01-22T11:37:14.875Z,14.00
2023-01-22T11:40:19.245Z,12.52
2023-01-22T11:43:47.340Z,12.25
2023-01-22T11:46:58.939Z,12.63
2023-01-22T11:50:30.445Z,12.68
2023-01-22T11:53:47.239Z,15.13
2023-01-22T11:56:55.704Z,13.68
2023-01-22T12:00:14.280Z,13.40
2023-01-22T12:03:20.864Z,11.57
2023-01-22T12:06:43.906Z,15.73
2023-01-22T12:10:22.887Z,13.30
2023-01-22T12:17:11.279Z,13.48
2023-01-22T12:20:42.903Z,12.60
2023-01-22T12:23:56.925Z,20.30
2023-01-22T12:27:30.262Z,11.43
2023-01-22T12:31:02.776Z,14.13
2023-01-22T12:34:09.859Z,13.40
2023-01-22T12:37:16.686Z,11.02
2023-01-22T12:40:45.806Z,9.75
2023-01-22T12:43:58.880Z,8.73
2023-01-22T12:47:20.866Z,10.27
2023-01-22T12:53:34.257Z,6.85
2023-01-22T12:56:35.973Z,3.72
2023-01-22T12:59:39.036Z,4.35
2023-01-22T13:02:40.732Z,7.32
2023-01-22T13:05:44.741Z,7.65
2023-01-22T13:08:47.562Z,6.82
2023-01-22T13:11:49.332Z,5.68
2023-01-22T13:14:51.017Z,6.97
2023-01-22T13:18:14.682Z,6.22
2023-01-22T13:21:17.449Z,7.13
2023-01-22T13:24:20.543Z,6.78
2023-01-22T13:27:33.698Z,5.57
2023-01-22T13:30:35.474Z,7.68
2023-01-22T13:33:37.131Z,7.25
2023-01-22T13:36:39.756Z,7.28
2023-01-22T13:39:41.507Z,7.88
2023-01-22T13:42:45.245Z,9.15
2023-01-22T13:45:46.889Z,8.18
2023-01-22T13:49:00.658Z,9.20
2023-01-22T13:52:06.741Z,9.05
2023-01-22T13:55:16.769Z,9.27
2023-01-22T13:58:49.266Z,4.50
2023-01-22T14:01:51.658Z,2.97
2023-01-22T14:04:53.342Z,2.20
2023-01-22T14:08:08.383Z,2.90
2023-01-22T14:11:10.054Z,2.00
2023-01-22T14:14:21.716Z,2.47
2023-01-22T14:17:33.917Z,2.55
2023-01-22T14:20:38.771Z,2.25
2023-01-22T14:23:41.730Z,1.73
2023-01-22T14:26:43.478Z,3.65
2023-01-22T14:29:45.585Z,3.97
2023-01-22T14:32:47.355Z,3.83
2023-01-22T14:35:49.080Z,3.70
2023-01-22T14:38:53.576Z,3.78
2023-01-22T14:41:55.259Z,3.63
2023-01-22T14:44:56.985Z,3.58
2023-01-22T14:48:00.554Z,3.30
2023-01-22T14:51:08.077Z,3.95
2023-01-22T14:54:09.821Z,4.18
2023-01-22T14:57:11.542Z,3.92
2023-01-22T15:00:15.451Z,3.58
2023-01-22T15:03:17.159Z,3.03
2023-01-22T15:06:18.814Z,3.35
2023-01-22T15:09:20.585Z,3.42
2023-01-22T15:12:23.314Z,2.55
2023-01-22T15:15:28.599Z,3.75
2023-01-22T15:18:30.687Z,3.17
2023-01-22T15:21:32.361Z,2.88
2023-01-22T15:24:34.038Z,3.05
2023-01-22T15:27:36.968Z,3.40
2023-01-22T15:30:38.624Z,3.53
2023-01-22T15:33:40.423Z,3.28
2023-01-22T15:36:42.166Z,6.72
2023-01-22T15:39:44.027Z,3.65
2023-01-22T15:42:45.771Z,4.65
2023-01-22T15:45:47.497Z,4.53
2023-01-22T15:48:49.682Z,4.53
2023-01-22T15:51:51.383Z,3.97
2023-01-22T15:54:53.876Z,3.10
2023-01-22T15:57:56.640Z,4.45
2023-01-22T16:00:58.536Z,3.75
2023-01-22T16:04:01.682Z,3.67
2023-01-22T16:07:03.752Z,3.45
2023-01-22T16:10:06.257Z,2.95
2023-01-22T16:13:08.457Z,3.85
2023-01-22T16:16:22.843Z,3.58
2023-01-22T16:19:24.717Z,3.03
2023-01-22T16:22:27.493Z,3.70
2023-01-22T16:25:29.145Z,6.30
2023-01-22T16:28:33.087Z,3.90
2023-01-22T16:31:35.330Z,2.30
2023-01-22T16:34:37.086Z,2.35
2023-01-22T16:37:39.879Z,3.22
2023-01-22T16:40:41.534Z,3.22
2023-01-22T16:43:43.274Z,2.90
2023-01-22T16:46:48.202Z,3.17
2023-01-22T16:49:51.500Z,2.40
2023-01-22T16:52:53.179Z,1.92
2023-01-22T16:55:57.488Z,2.97
2023-01-22T16:59:18.467Z,3.10
2023-01-22T17:02:20.238Z,1.98
2023-01-22T17:05:21.966Z,3.00
2023-01-22T17:08:25.138Z,3.72
2023-01-22T17:11:27.103Z,3.70
2023-01-22T17:14:29.900Z,3.92
2023-01-22T17:17:31.764Z,3.80
2023-01-22T17:20:33.435Z,2.08
2023-01-22T17:23:35.187Z,3.75
2023-01-22T17:26:36.928Z,3.67
2023-01-22T17:29:39.274Z,3.40
2023-01-22T17:32:40.945Z,2.97
2023-01-22T17:35:42.588Z,4.03
2023-01-22T17:38:44.788Z,4.47
2023-01-22T17:41:46.434Z,3.90
2023-01-22T17:44:48.211Z,5.68
2023-01-22T17:47:50.155Z,4.30
2023-01-22T17:50:52.180Z,3.97
2023-01-22T17:53:55.011Z,5.25
2023-01-22T17:56:56.703Z,5.95
2023-01-22T17:59:59.376Z,3.95
2023-01-22T18:03:01.241Z,5.68
2023-01-22T18:06:03.136Z,4.95
2023-01-22T18:09:06.192Z,5.57
2023-01-22T18:12:07.946Z,5.57
2023-01-22T18:15:10.664Z,6.30
2023-01-22T18:18:14.484Z,6.60
2023-01-22T18:21:17.047Z,5.28
2023-01-22T18:24:22.863Z,4.85
2023-01-22T18:27:25.518Z,5.65
2023-01-22T18:30:27.323Z,7.40
2023-01-22T18:33:29.059Z,6.15
2023-01-22T18:36:35.690Z,6.60
2023-01-22T18:39:37.564Z,7.28
2023-01-22T18:42:39.276Z,8.55
2023-01-22T18:45:41.057Z,7.35
2023-01-22T18:48:43.228Z,6.22
2023-01-22T18:51:45.644Z,8.20
2023-01-22T18:54:47.293Z,7.93
2023-01-22T18:57:54.464Z,9.73
2023-01-22T19:00:57.140Z,9.27
2023-01-22T19:04:00.976Z,9.32
2023-01-22T19:07:02.661Z,13.68
2023-01-22T19:10:07.831Z,8.25
2023-01-22T19:13:09.529Z,9.40
2023-01-22T19:16:13.038Z,7.40
2023-01-22T19:19:15.186Z,9.02
2023-01-22T19:22:16.975Z,10.57
2023-01-22T19:25:19.100Z,8.77
2023-01-22T19:28:21.356Z,8.52
2023-01-22T19:31:34.153Z,7.68
2023-01-22T19:34:35.864Z,10.00
2023-01-22T19:37:37.727Z,8.38
2023-01-22T19:40:44.086Z,7.78
2023-01-22T19:43:48.386Z,8.40
2023-01-22T19:46:50.185Z,7.95
2023-01-22T19:49:52.223Z,6.22
2023-01-22T19:52:54.140Z,7.18
2023-01-22T19:55:57.622Z,9.77
2023-01-22T19:59:05.983Z,10.40
2023-01-22T20:02:10.187Z,10.98
2023-01-22T20:05:11.998Z,9.48
2023-01-22T20:08:14.140Z,13.43
2023-01-22T20:11:15.999Z,10.38
2023-01-22T20:14:17.680Z,14.80
2023-01-22T20:17:19.455Z,10.93
2023-01-22T20:20:22.346Z,10.88
2023-01-22T20:23:24.275Z,11.23
2023-01-22T20:26:25.910Z,11.07
2023-01-22T20:29:27.996Z,10.07
2023-01-22T20:32:31.101Z,9.30
2023-01-22T20:35:32.771Z,15.63
2023-01-22T20:38:35.785Z,12.02
2023-01-22T20:41:37.608Z,12.20
